createdAt,value
2024-04-22T00:01:37.096Z,6.13
2024-04-22T00:04:05.475Z,6.15
2024-04-22T00:06:33.640Z,9.68
2024-04-22T00:09:01.645Z,11.02
2024-04-22T00:11:29.673Z,6.85
2024-04-22T00:13:57.774Z,8.90
2024-04-22T00:16:25.843Z,6.45
2024-04-22T00:18:53.940Z,3.40
2024-04-22T00:21:21.858Z,4.68
2024-04-22T00:23:49.985Z,4.53
2024-04-22T00:26:17.911Z,6.93
2024-04-22T00:28:45.940Z,8.07
2024-04-22T00:31:13.964Z,4.95
2024-04-22T00:33:42.086Z,6.72
2024-04-22T00:36:10.041Z,9.48
2024-04-22T00:38:38.039Z,8.30
2024-04-22T00:41:05.997Z,5.93
2024-04-22T00:43:34.065Z,4.10
2024-04-22T00:46:02.035Z,5.55
2024-04-22T00:48:30.036Z,6.32
2024-04-22T00:50:59.209Z,3.58
2024-04-22T00:53:28.023Z,5.72
2024-04-22T00:55:57.050Z,5.18
2024-04-22T00:58:25.985Z,9.63
2024-04-22T01:00:54.322Z,4.60
2024-04-22T01:03:22.598Z,10.00
2024-04-22T01:05:50.650Z,6.30
2024-04-22T01:08:18.647Z,12.27
2024-04-22T01:10:46.643Z,7.05
2024-04-22T01:13:14.955Z,6.35
2024-04-22T01:15:43.049Z,9.10
2024-04-22T01:18:17.300Z,5.68
2024-04-22T01:20:45.924Z,6.07
2024-04-22T01:23:13.940Z,3.58
2024-04-22T01:25:46.741Z,7.03
2024-04-22T01:28:14.817Z,7.00
2024-04-22T01:30:43.258Z,11.75
2024-04-22T01:33:11.361Z,4.57
2024-04-22T01:35:39.374Z,10.82
2024-04-22T01:38:07.444Z,4.97
2024-04-22T01:40:35.572Z,12.52
2024-04-22T01:43:03.839Z,5.47
2024-04-22T01:45:31.814Z,12.43
2024-04-22T01:47:59.819Z,7.50
2024-04-22T01:50:27.784Z,6.28
2024-04-22T01:52:55.794Z,8.07
2024-04-22T01:55:24.855Z,5.68
2024-04-22T01:57:53.218Z,6.68
2024-04-22T02:00:21.150Z,10.25
2024-04-22T02:02:49.261Z,8.07
2024-04-22T02:05:17.244Z,10.23
2024-04-22T02:07:45.428Z,9.30
2024-04-22T02:10:21.871Z,8.18
2024-04-22T02:12:52.715Z,8.27
2024-04-22T02:15:20.847Z,8.93
2024-04-22T02:17:49.072Z,12.02
2024-04-22T02:20:17.184Z,7.55
2024-04-22T02:22:45.220Z,8.88
2024-04-22T02:25:13.239Z,9.65
2024-04-22T02:27:41.271Z,8.88
2024-04-22T02:30:09.530Z,8.02
2024-04-22T02:32:37.615Z,5.25
2024-04-22T02:35:05.786Z,7.88
2024-04-22T02:37:33.864Z,10.88
2024-04-22T02:40:01.931Z,9.43
2024-04-22T02:42:30.343Z,7.38
2024-04-22T02:44:58.291Z,8.68
2024-04-22T02:47:26.520Z,11.13
2024-04-22T02:49:54.506Z,11.68
2024-04-22T02:52:22.550Z,9.77
2024-04-22T02:54:51.466Z,6.75
2024-04-22T02:57:19.476Z,9.15
2024-04-22T02:59:47.580Z,7.15
2024-04-22T03:02:15.624Z,4.65
2024-04-22T03:04:43.703Z,7.82
2024-04-22T03:07:11.810Z,5.22
2024-04-22T03:09:44.043Z,7.00
2024-04-22T03:12:12.507Z,8.00
2024-04-22T03:14:40.831Z,6.60
2024-04-22T03:17:08.818Z,8.73
2024-04-22T03:19:36.836Z,4.43
2024-04-22T03:22:04.930Z,6.15
2024-04-22T03:24:32.958Z,9.63
2024-04-22T03:27:01.096Z,9.73
2024-04-22T03:29:29.356Z,15.60
2024-04-22T03:31:57.453Z,11.38
2024-04-22T03:34:25.547Z,7.72
2024-04-22T03:36:53.535Z,6.20
2024-04-22T03:39:21.608Z,8.25
2024-04-22T03:41:49.716Z,8.75
2024-04-22T03:44:17.761Z,12.38
2024-04-22T03:47:04.550Z,7.05
2024-04-22T03:49:51.594Z,7.00
2024-04-22T03:52:20.604Z,9.55
2024-04-22T03:54:48.618Z,10.93
2024-04-22T03:57:16.778Z,7.05
2024-04-22T03:59:44.737Z,9.30
2024-04-22T04:02:12.725Z,9.43
2024-04-22T04:04:40.811Z,4.45
2024-04-22T04:07:09.151Z,7.78
2024-04-22T04:09:38.153Z,3.67
2024-04-22T04:12:06.492Z,6.50
2024-04-22T04:14:34.570Z,9.30
2024-04-22T04:17:02.736Z,5.72
2024-04-22T04:19:31.166Z,9.75
2024-04-22T04:21:59.212Z,5.35
2024-04-22T04:24:27.169Z,8.50
2024-04-22T04:26:55.228Z,8.40
2024-04-22T04:29:23.145Z,3.85
2024-04-22T04:31:51.337Z,7.55
2024-04-22T04:34:19.523Z,5.63
2024-04-22T04:36:47.616Z,8.95
2024-04-22T04:39:15.655Z,4.47
2024-04-22T04:41:43.671Z,8.75
2024-04-22T04:44:11.617Z,6.90
2024-04-22T04:46:39.939Z,5.28
2024-04-22T04:49:08.124Z,4.78
2024-04-22T04:51:36.142Z,3.95
2024-04-22T04:54:04.112Z,11.65
2024-04-22T04:56:32.284Z,7.47
2024-04-22T04:59:00.306Z,6.55
2024-04-22T05:01:28.541Z,6.65
2024-04-22T05:03:59.088Z,9.40
2024-04-22T05:06:27.145Z,4.57
2024-04-22T05:08:55.107Z,11.00
2024-04-22T05:11:23.319Z,7.40
2024-04-22T05:13:51.265Z,5.85
2024-04-22T05:16:19.025Z,10.23
2024-04-22T05:18:46.842Z,6.03
2024-04-22T05:21:14.554Z,10.40
2024-04-22T05:23:48.876Z,9.48
2024-04-22T05:26:16.613Z,6.60
2024-04-22T05:28:47.141Z,4.70
2024-04-22T05:31:15.054Z,10.02
2024-04-22T05:34:01.653Z,7.97
2024-04-22T05:36:29.430Z,11.00
2024-04-22T05:38:58.706Z,6.63
2024-04-22T05:41:26.783Z,4.65
2024-04-22T05:43:54.372Z,6.45
2024-04-22T05:46:23.664Z,12.07
2024-04-22T05:48:51.375Z,6.78
2024-04-22T05:51:19.173Z,17.05
2024-04-22T05:53:47.026Z,15.27
2024-04-22T05:56:14.742Z,12.45
2024-04-22T05:58:42.446Z,14.15
2024-04-22T06:01:10.464Z,37.55
2024-04-22T06:03:38.322Z,14.50
2024-04-22T06:06:06.081Z,10.98
2024-04-22T06:08:33.934Z,7.32
2024-04-22T06:11:01.796Z,11.23
2024-04-22T06:13:29.605Z,11.38
2024-04-22T06:15:58.057Z,9.48
2024-04-22T06:18:25.959Z,8.10
2024-04-22T06:20:53.688Z,11.02
2024-04-22T06:23:21.455Z,6.93
2024-04-22T06:25:49.359Z,12.80
2024-04-22T06:28:17.201Z,7.10
2024-04-22T06:30:46.215Z,11.23
2024-04-22T06:33:13.921Z,12.23
2024-04-22T06:35:41.631Z,11.52
2024-04-22T06:38:09.409Z,8.38
2024-04-22T06:40:37.423Z,13.57
2024-04-22T06:43:06.948Z,9.73
2024-04-22T06:45:34.791Z,12.40
2024-04-22T06:48:02.625Z,11.30
2024-04-22T06:50:30.370Z,4.70
2024-04-22T06:52:58.150Z,8.63
2024-04-22T06:55:26.265Z,4.95
2024-04-22T06:57:53.984Z,9.52
2024-04-22T07:00:22.160Z,8.30
2024-04-22T07:02:49.904Z,9.15
2024-04-22T07:05:17.914Z,5.97
2024-04-22T07:07:46.001Z,8.38
2024-04-22T07:10:13.815Z,8.77
2024-04-22T07:12:44.855Z,7.38
2024-04-22T07:15:14.248Z,11.35
2024-04-22T07:17:42.241Z,8.55
2024-04-22T07:20:10.427Z,7.78
2024-04-22T07:22:43.549Z,15.77
2024-04-22T07:25:11.599Z,9.45
2024-04-22T07:27:39.786Z,4.82
2024-04-22T07:30:08.030Z,8.30
2024-04-22T07:32:36.539Z,8.32
2024-04-22T07:35:04.937Z,9.77
2024-04-22T07:37:37.384Z,13.27
2024-04-22T07:40:16.596Z,7.28
2024-04-22T07:42:45.934Z,7.72
2024-04-22T07:45:14.290Z,9.45
2024-04-22T07:47:42.470Z,8.32
2024-04-22T07:50:12.185Z,6.78
2024-04-22T07:52:41.729Z,12.48
2024-04-22T07:55:12.267Z,9.98
2024-04-22T08:00:09.867Z,10.63
2024-04-22T08:02:41.153Z,11.10
2024-04-22T08:05:09.909Z,9.18
2024-04-22T08:07:40.938Z,7.88
2024-04-22T08:10:09.058Z,9.93
2024-04-22T08:12:38.137Z,10.18
2024-04-22T08:15:06.387Z,9.80
2024-04-22T08:17:34.345Z,13.00
2024-04-22T08:20:02.563Z,9.38
2024-04-22T08:22:31.739Z,11.35
2024-04-22T08:25:02.621Z,6.60
2024-04-22T08:27:31.462Z,10.35
2024-04-22T08:30:02.391Z,15.90
2024-04-22T08:32:30.322Z,13.23
2024-04-22T08:34:58.045Z,22.40
2024-04-22T08:37:25.847Z,14.65
2024-04-22T08:39:54.788Z,14.57
2024-04-22T08:42:25.012Z,10.43
2024-04-22T08:44:54.128Z,11.82
2024-04-22T08:47:22.622Z,14.38
2024-04-22T08:49:51.016Z,10.13
2024-04-22T08:52:20.612Z,10.68
2024-04-22T08:54:48.579Z,14.40
2024-04-22T08:57:16.677Z,11.38
2024-04-22T08:59:48.984Z,13.32
2024-04-22T09:02:17.821Z,15.02
2024-04-22T09:04:46.413Z,9.85
2024-04-22T09:07:19.234Z,10.45
2024-04-22T09:10:05.275Z,14.50
2024-04-22T09:12:36.632Z,14.90
2024-04-22T09:15:05.819Z,17.10
2024-04-22T09:17:34.809Z,12.77
2024-04-22T09:20:04.595Z,20.73
2024-04-22T09:22:32.570Z,15.82
2024-04-22T09:25:00.461Z,14.10
2024-04-22T09:27:29.180Z,19.02
2024-04-22T09:30:02.089Z,13.23
2024-04-22T09:32:32.834Z,15.75
2024-04-22T09:35:19.326Z,24.60
2024-04-22T09:37:51.911Z,14.27
2024-04-22T09:40:21.226Z,19.25
2024-04-22T09:42:49.661Z,15.45
2024-04-22T09:45:17.669Z,17.95
2024-04-22T09:47:47.623Z,21.48
2024-04-22T09:50:17.276Z,22.13
2024-04-22T09:52:48.306Z,16.88
2024-04-22T09:55:17.321Z,22.40
2024-04-22T09:57:48.389Z,20.02
2024-04-22T10:00:17.822Z,23.48
2024-04-22T10:02:46.383Z,22.30
2024-04-22T10:05:15.343Z,21.63
2024-04-22T10:07:43.787Z,20.38
2024-04-22T10:10:13.392Z,20.58
2024-04-22T10:12:41.347Z,20.60
2024-04-22T10:15:13.800Z,21.85
2024-04-22T10:17:46.232Z,20.90
2024-04-22T10:20:16.450Z,24.17
2024-04-22T10:22:45.117Z,20.50
2024-04-22T10:25:20.015Z,23.00
2024-04-22T10:27:47.926Z,23.40
2024-04-22T10:30:16.199Z,27.02
2024-04-22T10:32:44.173Z,24.98
2024-04-22T10:35:12.457Z,21.48
2024-04-22T10:37:40.184Z,23.40
2024-04-22T10:40:08.894Z,29.77
2024-04-22T10:42:36.748Z,47.58
2024-04-22T10:45:05.607Z,34.38
2024-04-22T10:47:34.668Z,46.00
2024-04-22T10:50:02.426Z,32.53
2024-04-22T10:52:30.996Z,35.10
2024-04-22T10:54:59.189Z,25.25
2024-04-22T10:57:27.443Z,26.13
2024-04-22T10:59:57.328Z,27.08
2024-04-22T11:02:25.364Z,26.27
2024-04-22T11:04:53.288Z,20.10
2024-04-22T11:07:24.765Z,24.77
2024-04-22T11:09:53.144Z,24.13
2024-04-22T11:12:25.763Z,28.77
2024-04-22T11:14:57.532Z,26.80
2024-04-22T11:17:25.729Z,28.13
2024-04-22T11:19:56.164Z,26.83
2024-04-22T11:22:24.388Z,29.77
2024-04-22T11:24:52.244Z,21.23
2024-04-22T11:27:20.270Z,26.52
2024-04-22T11:29:48.025Z,31.35
2024-04-22T11:32:15.916Z,23.95
2024-04-22T11:34:52.791Z,25.15
2024-04-22T11:37:29.551Z,23.67
2024-04-22T11:39:59.597Z,22.58
2024-04-22T11:42:28.859Z,26.23
2024-04-22T11:44:57.428Z,26.75
2024-04-22T11:47:28.380Z,23.25
2024-04-22T11:49:56.401Z,24.17
2024-04-22T11:52:24.298Z,25.58
2024-04-22T11:54:52.050Z,22.40
2024-04-22T11:57:19.905Z,27.08
2024-04-22T11:59:47.689Z,27.92
2024-04-22T12:02:18.399Z,23.60
2024-04-22T12:04:46.602Z,23.33
2024-04-22T12:07:14.597Z,22.60
2024-04-22T12:09:42.367Z,29.58
2024-04-22T12:12:10.153Z,30.95
2024-04-22T12:14:37.942Z,24.38
2024-04-22T12:17:06.295Z,29.88
2024-04-22T12:19:34.279Z,31.17
2024-04-22T12:22:05.198Z,24.63
2024-04-22T12:24:33.014Z,24.67
2024-04-22T12:27:02.463Z,26.50
2024-04-22T12:29:31.704Z,25.23
2024-04-22T12:32:00.142Z,30.92
2024-04-22T12:34:28.092Z,31.55
2024-04-22T12:36:56.811Z,34.10
2024-04-22T12:39:24.884Z,27.40
2024-04-22T12:41:53.383Z,29.15
2024-04-22T12:44:21.197Z,24.15
2024-04-22T12:47:07.494Z,25.35
2024-04-22T12:49:55.065Z,28.58
2024-04-22T12:52:23.199Z,28.88
2024-04-22T12:54:51.115Z,26.05
2024-04-22T12:57:19.060Z,28.70
2024-04-22T12:59:46.776Z,33.08
2024-04-22T13:02:14.947Z,24.02
2024-04-22T13:04:42.792Z,26.90
2024-04-22T13:07:10.771Z,23.02
2024-04-22T13:09:38.937Z,24.83
2024-04-22T13:12:07.217Z,27.42
2024-04-22T13:14:35.042Z,22.17
2024-04-22T13:17:02.803Z,22.95
2024-04-22T13:19:30.591Z,26.92
2024-04-22T13:21:58.360Z,22.70
2024-04-22T13:24:26.080Z,24.05
2024-04-22T13:26:53.863Z,21.50
2024-04-22T13:29:23.540Z,26.90
2024-04-22T13:31:52.459Z,26.30
2024-04-22T13:34:20.476Z,28.20
2024-04-22T13:36:48.243Z,23.73
2024-04-22T13:39:16.025Z,25.15
2024-04-22T13:41:44.328Z,23.35
2024-04-22T13:44:12.143Z,21.27
2024-04-22T13:46:39.915Z,28.95
2024-04-22T13:49:07.704Z,21.02
2024-04-22T13:51:35.524Z,21.27
2024-04-22T13:54:03.364Z,22.30
2024-04-22T13:56:32.136Z,32.20
2024-04-22T13:58:59.960Z,23.63
2024-04-22T14:01:27.679Z,16.02
2024-04-22T14:03:55.448Z,13.50
2024-04-22T14:06:23.266Z,12.00
2024-04-22T14:08:51.623Z,12.35
2024-04-22T14:11:19.788Z,11.48
2024-04-22T14:13:48.016Z,8.98
2024-04-22T14:16:15.908Z,6.72
2024-04-22T14:18:43.787Z,7.72
2024-04-22T14:21:11.774Z,4.82
2024-04-22T14:23:39.586Z,6.95
2024-04-22T14:26:07.621Z,7.18
2024-04-22T14:28:37.852Z,6.55
2024-04-22T14:31:07.359Z,8.50
2024-04-22T14:33:35.263Z,8.38
2024-04-22T14:36:09.956Z,9.80
2024-04-22T14:38:37.850Z,13.98
2024-04-22T14:41:05.873Z,14.43
2024-04-22T14:43:34.844Z,9.50
2024-04-22T14:46:03.768Z,10.60
2024-04-22T14:57:54.592Z,10.23
2024-04-22T15:00:22.514Z,9.82
2024-04-22T15:02:50.454Z,9.73
2024-04-22T15:05:18.514Z,8.80
2024-04-22T15:07:46.762Z,9.80
2024-04-22T15:10:14.552Z,10.68
2024-04-22T15:12:42.338Z,11.43
2024-04-22T15:15:09.985Z,12.60
2024-04-22T15:17:38.097Z,16.58
2024-04-22T15:20:06.821Z,9.93
2024-04-22T15:22:34.971Z,8.77
2024-04-22T15:25:06.042Z,8.93
2024-04-22T15:27:34.770Z,8.82
2024-04-22T15:30:04.397Z,9.80
2024-04-22T15:32:32.582Z,11.43
2024-04-22T15:35:00.598Z,10.40
2024-04-22T15:37:28.407Z,7.32
2024-04-22T15:39:56.216Z,9.40
2024-04-22T15:42:24.040Z,7.97
2024-04-22T15:44:51.780Z,6.68
2024-04-22T15:47:23.019Z,8.75
2024-04-22T15:49:51.514Z,5.93
2024-04-22T15:52:19.299Z,6.43
2024-04-22T15:54:47.611Z,7.15
2024-04-22T15:57:15.331Z,7.35
2024-04-22T15:59:55.147Z,8.10
2024-04-22T16:02:30.029Z,7.85
2024-04-22T16:04:57.790Z,8.82
2024-04-22T16:07:25.994Z,7.82
2024-04-22T16:09:53.733Z,8.02
2024-04-22T16:12:21.676Z,7.03
2024-04-22T16:14:49.838Z,10.68
2024-04-22T16:17:17.515Z,8.13
2024-04-22T16:19:45.275Z,8.10
2024-04-22T16:22:13.432Z,11.15
2024-04-22T16:24:41.183Z,8.93
2024-04-22T16:27:08.874Z,9.63
2024-04-22T16:29:36.644Z,7.85
2024-04-22T16:32:04.703Z,8.90
2024-04-22T16:34:35.731Z,7.75
2024-04-22T16:37:03.505Z,9.52
2024-04-22T16:39:31.745Z,9.43
2024-04-22T16:41:59.407Z,9.40
2024-04-22T16:44:27.921Z,9.80
2024-04-22T16:46:55.879Z,9.50
2024-04-22T16:49:23.669Z,9.25
2024-04-22T16:51:51.703Z,9.63
2024-04-22T16:54:19.379Z,8.57
2024-04-22T16:56:47.130Z,11.95
2024-04-22T16:59:14.852Z,9.55
2024-04-22T17:01:42.615Z,11.52
2024-04-22T17:04:10.629Z,11.57
2024-04-22T17:06:38.416Z,11.32
2024-04-22T17:09:06.217Z,11.52
2024-04-22T17:11:34.031Z,10.88
2024-04-22T17:14:03.733Z,10.32
2024-04-22T17:16:32.237Z,11.85
2024-04-22T17:19:00.141Z,9.63
2024-04-22T17:21:28.261Z,9.90
2024-04-22T17:23:56.457Z,13.75
2024-04-22T17:26:25.970Z,11.40
2024-04-22T17:28:54.682Z,12.45
2024-04-22T17:31:25.245Z,11.27
2024-04-22T17:33:54.302Z,13.23
2024-04-22T17:36:22.475Z,13.15
2024-04-22T17:38:50.421Z,13.65
2024-04-22T17:41:18.536Z,14.40
2024-04-22T17:43:46.921Z,13.60
2024-04-22T17:46:14.716Z,16.17
2024-04-22T17:48:42.947Z,13.55
2024-04-22T17:51:15.820Z,13.40
2024-04-22T17:53:44.082Z,14.20
2024-04-22T17:56:13.307Z,15.52
2024-04-22T17:58:41.906Z,14.27
2024-04-22T18:01:10.087Z,14.25
2024-04-22T18:03:38.501Z,13.20
2024-04-22T18:06:06.822Z,14.05
2024-04-22T18:08:34.708Z,14.82
2024-04-22T18:11:02.950Z,13.60
2024-04-22T18:13:31.260Z,15.18
2024-04-22T18:15:59.031Z,15.25
2024-04-22T18:18:26.940Z,14.32
2024-04-22T18:20:54.664Z,13.30
2024-04-22T18:23:22.463Z,14.55
2024-04-22T18:25:51.365Z,14.27
2024-04-22T18:30:54.376Z,17.83
2024-04-22T18:33:25.886Z,16.10
2024-04-22T18:35:57.297Z,15.65
2024-04-22T18:38:25.583Z,13.48
2024-04-22T18:40:53.568Z,16.27
2024-04-22T18:43:21.478Z,16.60
2024-04-22T18:45:49.542Z,17.05
2024-04-22T18:48:17.434Z,15.90
2024-04-22T18:50:45.510Z,15.70
2024-04-22T18:53:13.692Z,17.60
2024-04-22T18:55:41.516Z,18.90
2024-04-22T18:58:09.305Z,18.05
2024-04-22T19:00:37.048Z,17.92
2024-04-22T19:03:05.209Z,20.67
2024-04-22T19:05:33.454Z,18.58
2024-04-22T19:08:01.301Z,22.17
2024-04-22T19:10:29.051Z,18.92
2024-04-22T19:13:01.646Z,22.80
2024-04-22T19:15:30.181Z,20.80
2024-04-22T19:17:58.065Z,21.60
2024-04-22T19:20:25.946Z,19.65
2024-04-22T19:22:53.835Z,21.98
2024-04-22T19:25:22.158Z,21.58
2024-04-22T19:27:52.131Z,22.83
2024-04-22T19:30:20.216Z,23.83
2024-04-22T19:32:48.095Z,24.42
2024-04-22T19:35:16.429Z,21.98
2024-04-22T19:37:44.363Z,22.27
2024-04-22T19:40:12.573Z,31.88
2024-04-22T19:42:40.406Z,25.85
2024-04-22T19:45:08.999Z,28.13
2024-04-22T19:47:36.865Z,25.52
2024-04-22T19:50:07.377Z,30.15
2024-04-22T19:52:35.584Z,30.98
2024-04-22T19:55:03.340Z,26.15
2024-04-22T19:57:31.329Z,30.40
2024-04-22T19:59:59.878Z,33.63
2024-04-22T20:02:32.434Z,32.45
2024-04-22T20:05:00.948Z,21.73
2024-04-22T20:07:28.632Z,22.15
2024-04-22T20:09:56.632Z,22.05
2024-04-22T20:12:24.359Z,22.73
2024-04-22T20:14:52.574Z,22.35
2024-04-22T20:17:31.487Z,26.73
2024-04-22T20:19:59.353Z,25.48
2024-04-22T20:22:27.358Z,22.23
2024-04-22T20:24:55.689Z,24.52
2024-04-22T20:27:23.404Z,23.75
2024-04-22T20:29:52.162Z,23.35
2024-04-22T20:32:20.376Z,22.13
2024-04-22T20:34:49.719Z,22.55
2024-04-22T20:37:17.507Z,24.48
2024-04-22T20:39:45.235Z,26.35
2024-04-22T20:42:13.023Z,25.45
2024-04-22T20:44:40.766Z,25.17
2024-04-22T20:47:08.682Z,27.30
2024-04-22T20:49:36.642Z,26.02
2024-04-22T20:52:04.777Z,25.20
2024-04-22T20:54:32.474Z,27.73
2024-04-22T20:57:02.249Z,28.55
2024-04-22T20:59:32.046Z,28.40
2024-04-22T21:01:59.841Z,28.52
2024-04-22T21:04:27.619Z,27.60
2024-04-22T21:06:55.289Z,30.23
2024-04-22T21:09:23.492Z,26.45
2024-04-22T21:11:51.276Z,30.63
2024-04-22T21:14:19.183Z,34.38
2024-04-22T21:16:47.146Z,35.50
2024-04-22T21:19:20.139Z,32.45
2024-04-22T21:21:48.554Z,33.15
2024-04-22T21:24:16.367Z,37.97
2024-04-22T21:26:44.722Z,30.58
2024-04-22T21:29:12.989Z,33.95
2024-04-22T21:31:40.761Z,34.83
2024-04-22T21:34:09.760Z,32.22
2024-04-22T21:36:37.957Z,30.95
2024-04-22T21:39:05.707Z,33.47
2024-04-22T21:41:33.596Z,28.63
2024-04-22T21:44:01.373Z,34.03
2024-04-22T21:46:29.197Z,36.45
2024-04-22T21:48:57.617Z,33.00
2024-04-22T21:51:25.401Z,35.25
2024-04-22T21:53:53.197Z,35.63
2024-04-22T21:56:20.963Z,35.92
2024-04-22T21:59:26.633Z,31.35
2024-04-22T22:02:32.442Z,34.08
2024-04-22T22:05:38.168Z,32.60
2024-04-22T22:08:08.096Z,35.10
2024-04-22T22:10:36.098Z,38.95
2024-04-22T22:16:01.492Z,39.65
2024-04-22T22:18:29.478Z,38.03
2024-04-22T22:20:57.236Z,36.38
2024-04-22T22:23:25.032Z,40.08
2024-04-22T22:25:52.779Z,40.00
2024-04-22T22:28:20.654Z,42.65
2024-04-22T22:30:48.414Z,39.92
2024-04-22T22:33:16.514Z,46.63
2024-04-22T22:35:44.495Z,39.78
2024-04-22T22:38:44.434Z,33.03
2024-04-22T22:41:12.419Z,36.45
2024-04-22T22:43:40.136Z,40.08
2024-04-22T22:46:08.267Z,38.15
2024-04-22T22:48:36.108Z,40.72
2024-04-22T22:51:05.322Z,39.33
2024-04-22T22:53:33.020Z,42.25
2024-04-22T22:56:00.787Z,52.50
2024-04-22T22:58:28.527Z,41.20
2024-04-22T23:00:56.442Z,48.28
2024-04-22T23:03:24.542Z,46.55
2024-04-22T23:05:52.648Z,51.05
2024-04-22T23:08:20.377Z,52.72
2024-04-22T23:10:48.383Z,49.47
2024-04-22T23:13:16.217Z,45.05
2024-04-22T23:15:43.961Z,48.10
2024-04-22T23:18:12.207Z,42.45
2024-04-22T23:20:39.969Z,50.00
2024-04-22T23:23:07.728Z,46.33
2024-04-22T23:25:35.668Z,45.72
2024-04-22T23:28:03.517Z,46.58
2024-04-22T23:30:31.638Z,48.10
2024-04-22T23:32:59.437Z,42.67
2024-04-22T23:35:27.219Z,44.00
2024-04-22T23:37:55.087Z,48.33
2024-04-22T23:40:23.070Z,47.50
2024-04-22T23:42:51.068Z,51.40
2024-04-22T23:45:18.705Z,48.28
2024-04-22T23:47:46.999Z,46.28
2024-04-22T23:50:14.612Z,38.70
2024-04-22T23:52:42.490Z,46.75
2024-04-22T23:55:35.706Z,40.97
2024-04-22T23:58:42.152Z,37.63
